Fallbrook, CA

3:56 PM PST en Noviembre 23, 2014 (GMT -0800)
Shady Grove | Change Station
CLOSE
Current Station
Estación meteorológica personal
Location: Fallbrook, CA
Altura: 915 ft
Estaciones meteorológicas cercanas

Alt 915 ft 33.38 °N, 117.22 °W | Updated 7 minutes ago

Despejado
Despejado
75.2 ° F
Sensación térmica 75 ° F
N
4.0
Viento Variable Viento desde NNE
Gusts 6.0 mph

Hoy
Alta -- | Baja -- ° F
--% Posibilidad de precipitaciones
Ayer
Alta -- | Baja -- ° F
Precip. -- pul
6:27 AM 4:42 PM
Creciente, 3% visible
Presión 30.05 pul
Visibilidad 8.0 Millas
Nubes Despejado
Índice de calor 75 ° F
Punto de rocío 17 ° F
Humedad 11%
Precipitaciones 0.00 pul
Espesor de la nieve No disponible.
UV 0 de una escala de 12
Polen 2.90 de una escala de 12
Calidad del aire No disponible.
Flu Activity No disponible.
METAR KNFG 232354Z AUTO 00000KT 8SM CLR 23/00 A3005 RMK AO2 SLP175 T02280000 10272 20189 53004 $

More Conditions Fewer Conditions

Presión 30.05 pul
Visibilidad 8.0 Millas
Nubes Despejado
Índice de calor 75 ° F
Punto de rocío 17 ° F
Humedad 11%
Precipitaciones 0.00 pul
Espesor de la nieve No disponible.
UV 0 de una escala de 12
Polen 2.90 de una escala de 12
Calidad del aire No disponible.
Flu Activity No disponible.
METAR KNFG 232354Z AUTO 00000KT 8SM CLR 23/00 A3005 RMK AO2 SLP175 T02280000 10272 20189 53004 $

More Conditions Fewer Conditions

10-Day Weather Forecast

Almanac

Astronomía

Nov. 23, 2014 Salida Puesta
Hora real
Crepúsculo civil
Crepúsculo náutico
Crepúsculo astronómico
Luna
Horas de luz
Horas de luz
Tomorrow will be .
, % of the Moon is Illuminated

Extremos de hoy

Máximos del estado Bajos del estado

Community

WunderPhotos

Upload Photos

1,773,211 ¡fotos cargadas!

WunderBlogs® & News

Nearby

Calidad del aire

  Calidad del aire Índice AQ Contaminante
Not available.

Grosos de nieve

Estación Profundido Altura

Actividad de terremotos

Ciudad Distance Mag. Tiempo y dato
Magnitud mínima muestra es 2,5.

Temperaturas de aguas costeras

Lugar Temperatura

Estaciones meteorológicas cercanas